Time;durP1;ratioP1;P1;durP2;ratioP2;P2;SDS_P1;SDS_P2;PMS_P1;PMS_P2;Temp;Humidity;BMP_temperature;BMP_pressure;BME280_temperature;BME280_humidity;BME280_pressure;Samples;Min_cycle;Max_cycle;Signal;HPM_P1;HPM_P2
2021/07/17 00:00:23;;;;;;;24.90;10.82;;;;;;;16.18;100.00;101005.72;5018526;28;20053;-69
2021/07/17 00:02:49;;;;;;;31.60;10.05;;;;;;;16.20;100.00;100997.53;5018631;28;20061;-69
2021/07/17 00:05:17;;;;;;;24.95;10.45;;;;;;;16.21;100.00;101001.97;5017535;28;20058;-67
2021/07/17 00:07:47;;;;;;;28.42;10.95;;;;;;;16.19;100.00;100999.41;5018502;28;20420;-69
2021/07/17 00:10:18;;;;;;;35.65;12.07;;;;;;;16.21;100.00;101001.97;5018440;28;20077;-69
2021/07/17 00:12:46;;;;;;;31.08;10.10;;;;;;;16.13;100.00;100995.28;5017592;28;20054;-68
2021/07/17 00:15:15;;;;;;;27.45;11.63;;;;;;;16.12;100.00;100998.13;5017455;28;20355;-68
2021/07/17 00:17:43;;;;;;;27.42;11.43;;;;;;;16.07;100.00;101001.09;5018154;28;20089;-68
2021/07/17 00:20:12;;;;;;;32.58;11.75;;;;;;;16.04;100.00;101001.34;5014857;28;20050;-68
2021/07/17 00:22:39;;;;;;;27.38;12.30;;;;;;;16.02;100.00;101008.69;4998963;28;20053;-68
2021/07/17 00:25:17;;;;;;;31.95;10.57;;;;;;;15.99;100.00;101006.19;4998661;28;20054;-68
2021/07/17 00:27:45;;;;;;;32.10;11.45;;;;;;;15.98;100.00;101012.53;4998753;28;20050;-68
2021/07/17 00:30:14;;;;;;;29.60;12.02;;;;;;;15.85;100.00;100999.06;4998727;28;20046;-68
2021/07/17 00:32:42;;;;;;;33.25;11.27;;;;;;;15.92;100.00;101002.19;4998710;28;20058;-69
2021/07/17 00:35:09;;;;;;;28.85;12.40;;;;;;;15.87;100.00;101002.50;4998662;28;20050;-69
2021/07/17 00:37:36;;;;;;;27.95;10.88;;;;;;;15.88;100.00;101006.91;4997505;28;20054;-69
2021/07/17 00:40:05;;;;;;;32.58;11.07;;;;;;;15.84;100.00;101005.38;4998118;28;20074;-69
2021/07/17 00:42:33;;;;;;;31.13;11.38;;;;;;;15.81;100.00;101001.09;4997269;28;20050;-69
2021/07/17 00:44:59;;;;;;;29.67;10.93;;;;;;;15.75;100.00;101002.38;4998081;28;20082;-68
2021/07/17 00:47:30;;;;;;;34.45;12.13;;;;;;;15.72;100.00;100999.91;4998121;28;20057;-69
2021/07/17 00:49:56;;;;;;;35.55;12.55;;;;;;;15.71;100.00;101000.00;4998356;28;20050;-68
2021/07/17 00:52:23;;;;;;;33.00;12.63;;;;;;;15.65;100.00;100995.06;4998017;28;20050;-68
2021/07/17 00:54:50;;;;;;;23.23;11.98;;;;;;;15.59;100.00;100996.34;4996846;28;20050;-69
2021/07/17 00:57:18;;;;;;;35.60;12.02;;;;;;;15.48;100.00;100987.16;4997936;28;20096;-69
2021/07/17 00:59:46;;;;;;;31.98;12.55;;;;;;;15.44;100.00;100992.88;4996791;28;20050;-68
2021/07/17 01:02:16;;;;;;;31.00;12.45;;;;;;;15.44;100.00;100992.88;4997990;28;20065;-69
2021/07/17 01:04:43;;;;;;;29.27;12.77;;;;;;;15.40;100.00;100991.34;4997853;28;20058;-69
2021/07/17 01:07:10;;;;;;;29.45;13.15;;;;;;;15.35;100.00;100988.97;4997632;28;20190;-68
2021/07/17 01:09:37;;;;;;;30.98;13.88;;;;;;;15.32;100.00;100990.03;4997335;28;20110;-68
2021/07/17 01:12:04;;;;;;;40.65;15.65;;;;;;;15.32;100.00;100990.03;4997903;28;20050;-69
2021/07/17 01:14:30;;;;;;;36.83;13.95;;;;;;;15.33;100.00;100994.47;4997826;28;20053;-68
2021/07/17 01:16:57;;;;;;;33.70;13.73;;;;;;;15.28;100.00;100993.94;4997514;28;20286;-68
2021/07/17 01:19:25;;;;;;;35.40;15.25;;;;;;;15.33;100.00;100997.19;4997416;28;20137;-68
2021/07/17 01:21:53;;;;;;;31.58;14.82;;;;;;;15.34;100.00;100996.19;5014810;28;20541;-68
2021/07/17 01:24:27;;;;;;;36.55;13.63;;;;;;;15.34;100.00;100990.81;5017127;28;20115;-68
2021/07/17 01:26:54;;;;;;;35.45;14.25;;;;;;;15.33;100.00;100990.91;5016977;28;20046;-68
2021/07/17 01:29:21;;;;;;;31.80;14.45;;;;;;;15.38;100.00;101002.22;5017137;28;20155;-68
2021/07/17 01:31:49;;;;;;;38.47;14.43;;;;;;;15.33;100.00;101001.69;5017155;28;20093;-68
2021/07/17 01:34:16;;;;;;;34.55;14.57;;;;;;;15.39;100.00;101013.84;5016778;28;20497;-69
2021/07/17 01:36:44;;;;;;;29.20;13.50;;;;;;;15.37;100.00;101013.97;5016836;28;20080;-68
2021/07/17 01:39:11;;;;;;;31.80;13.75;;;;;;;15.40;100.00;101020.94;5016740;28;20062;-67
2021/07/17 01:41:37;;;;;;;31.75;14.73;;;;;;;15.44;100.00;101011.72;5020807;28;20100;-69
2021/07/17 01:44:05;;;;;;;25.25;13.10;;;;;;;15.46;100.00;101017.84;5023817;28;20058;-68
2021/07/17 01:46:32;;;;;;;36.17;13.63;;;;;;;15.46;100.00;101021.41;5018060;28;20108;-67
2021/07/17 01:48:59;;;;;;;33.22;15.02;;;;;;;15.47;100.00;101022.25;5016963;28;20057;-68
2021/07/17 01:51:26;;;;;;;31.90;14.43;;;;;;;15.50;100.00;101019.34;5016685;28;20061;-67
2021/07/17 01:53:57;;;;;;;36.72;13.45;;;;;;;15.56;100.00;101012.69;5015785;28;20104;-67
2021/07/17 01:56:25;;;;;;;;;;;;;;;15.56;100.00;101005.50;5017321;28;20112;-68
2021/07/17 01:58:53;;;;;;;34.63;15.25;;;;;;;15.59;100.00;101002.56;5016387;28;19922;-68
2021/07/17 02:01:21;;;;;;;35.15;13.68;;;;;;;15.55;100.00;101010.97;5016221;28;20049;-68
2021/07/17 02:03:50;;;;;;;31.95;14.15;;;;;;;15.52;100.00;101000.44;5015523;28;20329;-68
2021/07/17 02:06:35;;;;;;;32.15;13.80;;;;;;;15.55;100.00;100989.44;5016429;28;20046;-69
2021/07/17 02:09:01;;;;;;;34.35;14.65;;;;;;;15.49;100.00;100993.44;5016369;28;20050;-68
2021/07/17 02:11:28;;;;;;;29.85;14.98;;;;;;;15.50;100.00;100997.84;5016185;28;20046;-68
2021/07/17 02:13:56;;;;;;;35.10;14.85;;;;;;;15.52;100.00;100997.75;4998956;28;20046;-67
2021/07/17 02:16:23;;;;;;;41.35;16.23;;;;;;;15.53;100.00;100999.47;5014940;28;20054;-68
2021/07/17 02:18:50;;;;;;;33.97;14.98;;;;;;;15.52;100.00;100989.66;5016385;28;20050;-68
2021/07/17 02:21:17;;;;;;;27.38;13.57;;;;;;;15.50;100.00;100989.75;5001771;28;20100;-68
2021/07/17 02:23:45;;;;;;;33.35;13.38;;;;;;;15.49;100.00;100985.34;4996725;28;20057;-68
2021/07/17 02:26:12;;;;;;;42.13;15.00;;;;;;;15.47;100.00;100984.56;4996207;28;20050;-68
2021/07/17 02:28:40;;;;;;;29.05;14.50;;;;;;;15.51;100.00;100998.72;4996263;28;20085;-68
2021/07/17 02:31:07;;;;;;;35.20;13.88;;;;;;;15.52;100.00;100993.19;4996402;28;20101;-69
2021/07/17 02:33:34;;;;;;;34.03;14.98;;;;;;;15.53;100.00;100997.63;4996078;28;20356;-69
2021/07/17 02:36:01;;;;;;;34.92;14.30;;;;;;;15.53;100.00;100997.63;4995210;28;20267;-68
2021/07/17 02:38:27;;;;;;;31.40;14.10;;;;;;;15.54;100.00;100999.34;4995287;28;20101;-68
2021/07/17 02:40:54;;;;;;;32.75;14.70;;;;;;;15.52;100.00;100997.75;4995761;28;20102;-68
2021/07/17 02:43:21;;;;;;;34.38;13.77;;;;;;;15.51;100.00;101004.94;4995984;28;20100;-68
2021/07/17 02:45:48;;;;;;;34.90;14.77;;;;;;;15.47;100.00;101004.28;4978875;28;20092;-68
2021/07/17 02:48:14;;;;;;;35.55;14.88;;;;;;;15.54;100.00;101007.44;4995154;28;20050;-69
2021/07/17 02:50:41;;;;;;;34.30;14.20;;;;;;;15.52;100.00;101001.28;4995883;28;20112;-68
2021/07/17 02:53:08;;;;;;;38.55;15.05;;;;;;;15.40;100.00;100977.91;4995952;28;20100;-68
2021/07/17 02:55:34;;;;;;;38.58;14.38;;;;;;;15.53;100.00;100999.47;4995856;28;20054;-69
2021/07/17 02:58:01;;;;;;;28.20;13.20;;;;;;;15.51;100.00;100999.56;4996023;28;20101;-67
2021/07/17 03:00:33;;;;;;;34.45;14.88;;;;;;;15.38;100.00;100983.41;4995800;28;20100;-68
2021/07/17 03:03:00;;;;;;;32.38;15.20;;;;;;;15.49;100.00;101001.50;4995987;28;20101;-68
2021/07/17 03:05:28;;;;;;;36.17;14.75;;;;;;;15.48;100.00;101008.69;4995848;28;20050;-68
2021/07/17 03:07:54;;;;;;;29.67;14.10;;;;;;;15.55;100.00;101013.66;4995972;28;20424;-68
2021/07/17 03:10:21;;;;;;;27.60;14.25;;;;;;;15.50;100.00;101008.59;4995696;28;20069;-68
2021/07/17 03:12:48;;;;;;;35.10;15.90;;;;;;;15.56;100.00;101002.81;4995881;28;20046;-69
2021/07/17 03:15:15;;;;;;;30.55;13.90;;;;;;;15.52;100.00;101003.97;4996117;28;20095;-68
2021/07/17 03:17:42;;;;;;;32.35;14.48;;;;;;;15.51;100.00;101002.25;4995986;28;20424;-68
2021/07/17 03:20:09;;;;;;;35.25;15.25;;;;;;;15.49;100.00;100998.81;4999179;28;20046;-69
2021/07/17 03:22:35;;;;;;;34.10;14.23;;;;;;;15.48;100.00;100997.09;5015468;28;20111;-68
2021/07/17 03:25:03;;;;;;;35.75;15.90;;;;;;;15.48;100.00;100997.09;5015536;28;20057;-67
2021/07/17 03:27:29;;;;;;;37.80;15.45;;;;;;;15.41;100.00;100976.97;5015586;28;20050;-68
2021/07/17 03:29:56;;;;;;;36.33;16.80;;;;;;;15.48;100.00;101000.63;5015247;28;20432;-69
2021/07/17 03:32:26;;;;;;;32.80;15.00;;;;;;;15.47;100.00;101008.78;5015994;28;20124;-69
2021/07/17 03:34:54;;;;;;;34.38;14.90;;;;;;;15.46;100.00;100997.19;5019407;28;20045;-69
2021/07/17 03:37:21;;;;;;;34.50;14.27;;;;;;;15.47;100.00;100995.34;5019239;28;20050;-69
2021/07/17 03:39:48;;;;;;;37.72;15.32;;;;;;;15.46;100.00;100990.94;5017949;28;20056;-69
2021/07/17 03:42:15;;;;;;;34.03;14.93;;;;;;;15.50;100.00;100994.28;5019114;28;20100;-68
2021/07/17 03:44:41;;;;;;;34.08;15.55;;;;;;;15.49;100.00;100996.13;5019026;28;20062;-69
2021/07/17 03:47:08;;;;;;;30.60;14.55;;;;;;;15.46;100.00;100990.94;5019334;28;20100;-68
2021/07/17 03:49:35;;;;;;;28.80;13.65;;;;;;;15.48;100.00;101003.31;5019307;28;20053;-69
2021/07/17 03:52:02;;;;;;;37.55;14.60;;;;;;;15.45;100.00;100991.91;5001695;28;20419;-69
2021/07/17 03:54:29;;;;;;;30.15;13.30;;;;;;;15.46;100.00;100996.31;5018063;28;20054;-69
2021/07/17 03:56:55;;;;;;;32.92;14.85;;;;;;;15.49;100.00;101012.25;5018737;28;20046;-68
2021/07/17 03:59:22;;;;;;;31.73;14.32;;;;;;;15.44;100.00;101004.50;5018825;28;20506;-69
2021/07/17 04:01:51;;;;;;;38.00;14.30;;;;;;;15.42;100.00;101003.72;5017917;28;20057;-68
2021/07/17 04:04:19;;;;;;;30.55;15.85;;;;;;;15.43;100.00;101012.69;5017644;28;20100;-69
2021/07/17 04:06:46;;;;;;;32.65;15.27;;;;;;;15.43;100.00;101008.13;5018779;28;20466;-69
2021/07/17 04:09:13;;;;;;;38.55;14.65;;;;;;;15.43;100.00;101002.75;5019096;28;20058;-69
2021/07/17 04:11:39;;;;;;;33.25;14.02;;;;;;;15.45;100.00;101010.72;5019072;28;20119;-69
2021/07/17 04:14:06;;;;;;;35.80;15.70;;;;;;;15.46;100.00;101009.75;5018896;28;20395;-69
2021/07/17 04:16:33;;;;;;;36.35;14.93;;;;;;;15.46;100.00;101010.63;5017433;28;20050;-69
2021/07/17 04:18:59;;;;;;;35.47;14.30;;;;;;;15.46;100.00;101012.44;5018505;28;20046;-68
2021/07/17 04:21:26;;;;;;;33.33;14.40;;;;;;;15.46;100.00;101017.84;5004760;28;20050;-69
2021/07/17 04:23:53;;;;;;;32.70;14.57;;;;;;;15.47;100.00;101017.75;4998850;28;20082;-68
2021/07/17 04:26:19;;;;;;;34.28;14.23;;;;;;;15.45;100.00;101018.81;4998693;28;20050;-68
2021/07/17 04:28:46;;;;;;;44.33;16.38;;;;;;;15.41;100.00;101020.84;4997484;28;20058;-68
2021/07/17 04:31:13;;;;;;;36.67;15.98;;;;;;;15.45;100.00;101018.81;4998737;28;20051;-68
2021/07/17 04:33:40;;;;;;;35.88;14.32;;;;;;;15.43;100.00;101013.53;4998854;28;20054;-69
2021/07/17 04:36:09;;;;;;;35.47;14.07;;;;;;;15.46;100.00;101007.06;4998598;28;20061;-68
2021/07/17 04:38:36;;;;;;;31.30;13.90;;;;;;;15.49;100.00;101012.25;4997334;28;20050;-68
2021/07/17 04:41:03;;;;;;;34.53;13.65;;;;;;;15.53;100.00;101004.84;4998127;28;20428;-69
2021/07/17 04:43:30;;;;;;;36.00;15.73;;;;;;;15.55;100.00;101008.28;4997230;28;20061;-69
2021/07/17 04:45:56;;;;;;;43.95;15.27;;;;;;;15.57;100.00;101009.91;4998065;28;20105;-70
2021/07/17 04:48:23;;;;;;;38.30;14.80;;;;;;;15.58;100.00;101008.09;4998039;28;20738;-68
2021/07/17 04:50:50;;;;;;;36.63;15.32;;;;;;;15.59;100.00;101009.81;4997505;28;20105;-68
2021/07/17 04:53:16;;;;;;;33.22;14.85;;;;;;;15.57;100.00;101009.03;4997901;28;20438;-68
2021/07/17 04:55:43;;;;;;;34.80;15.07;;;;;;;15.64;100.00;101009.47;4998063;28;20325;-69
2021/07/17 04:58:10;;;;;;;36.83;15.20;;;;;;;15.64;100.00;101014.88;4996820;28;20428;-69
2021/07/17 05:00:36;;;;;;;32.05;13.82;;;;;;;15.63;100.00;101014.00;4996808;28;20065;-69
2021/07/17 05:03:03;;;;;;;38.85;15.43;;;;;;;15.67;100.00;101018.19;4998055;28;20058;-69
2021/07/17 05:05:30;;;;;;;34.15;13.07;;;;;;;15.67;100.00;101020.03;4998048;28;20050;-69
2021/07/17 05:08:00;;;;;;;40.78;14.80;;;;;;;15.68;100.00;101011.00;4998410;28;20082;-69
2021/07/17 05:10:27;;;;;;;35.55;14.57;;;;;;;15.69;100.00;101012.72;4998023;28;20124;-69
2021/07/17 05:12:53;;;;;;;43.65;16.02;;;;;;;15.70;100.00;101014.44;4997577;28;20109;-69
2021/07/17 05:15:20;;;;;;;38.92;14.52;;;;;;;15.70;100.00;101019.81;4997757;28;20058;-68
2021/07/17 05:17:47;;;;;;;32.30;14.05;;;;;;;15.74;100.00;101015.94;4997676;28;20054;-68
2021/07/17 05:20:14;;;;;;;34.40;13.90;;;;;;;15.72;100.00;101012.50;5001460;28;20096;-68
2021/07/17 05:22:41;;;;;;;38.20;15.02;;;;;;;15.77;100.00;101015.75;5017158;28;20064;-69
2021/07/17 05:25:08;;;;;;;32.22;13.93;;;;;;;15.77;100.00;101020.25;5017061;28;20072;-69
2021/07/17 05:27:35;;;;;;;39.63;14.90;;;;;;;15.77;100.00;101013.03;5016901;28;20493;-69
2021/07/17 05:30:03;;;;;;;38.28;14.85;;;;;;;15.77;100.00;101021.13;5017157;28;20060;-68
2021/07/17 05:32:30;;;;;;;34.75;15.10;;;;;;;15.80;100.00;101022.75;5016954;28;20053;-68
2021/07/17 05:34:56;;;;;;;33.13;14.88;;;;;;;15.80;100.00;101012.81;5015678;28;20104;-68
2021/07/17 05:37:25;;;;;;;33.90;15.23;;;;;;;15.84;100.00;101021.53;5017198;28;20116;-68
2021/07/17 05:39:52;;;;;;;37.55;15.55;;;;;;;15.85;100.00;101016.06;5015702;28;20062;-68
2021/07/17 05:42:18;;;;;;;39.78;15.98;;;;;;;15.99;100.00;101022.34;5016669;28;20395;-68
2021/07/17 05:44:45;;;;;;;34.28;16.00;;;;;;;15.98;100.00;101026.88;5016793;28;20049;-69
2021/07/17 05:47:12;;;;;;;32.95;15.20;;;;;;;15.93;100.00;101020.06;5015805;28;20062;-69
2021/07/17 05:49:38;;;;;;;32.80;15.35;;;;;;;15.96;100.00;101022.56;5016638;28;20050;-68
2021/07/17 05:52:05;;;;;;;36.47;16.52;;;;;;;15.97;100.00;101024.28;5016574;28;20138;-69
2021/07/17 05:54:32;;;;;;;37.95;15.73;;;;;;;16.00;100.00;101018.66;5015435;28;20089;-68
2021/07/17 05:56:59;;;;;;;35.60;16.02;;;;;;;16.09;100.00;101030.63;5016916;28;20100;-69
2021/07/17 05:59:25;;;;;;;39.05;15.98;;;;;;;16.17;100.00;101035.47;5010133;28;20176;-68
2021/07/17 06:01:52;;;;;;;39.05;17.63;;;;;;;16.18;100.00;101035.34;5003810;28;20080;-69
2021/07/17 06:04:19;;;;;;;31.85;16.00;;;;;;;16.20;100.00;101044.22;5008496;28;20052;-68
2021/07/17 06:06:45;;;;;;;35.55;16.45;;;;;;;16.23;100.00;101043.13;5016478;28;20439;-69
2021/07/17 06:09:12;;;;;;;41.05;17.63;;;;;;;16.32;100.00;101058.63;5013816;28;20057;-72
2021/07/17 06:11:39;;;;;;;37.13;17.77;;;;;;;16.30;100.00;101052.50;5007318;28;20065;-71
2021/07/17 06:14:06;;;;;;;34.47;16.48;;;;;;;16.34;100.00;101053.13;5005385;28;20050;-73
2021/07/17 06:16:33;;;;;;;41.65;17.95;;;;;;;16.30;100.00;101052.50;5005890;28;20104;-73
2021/07/17 06:19:02;;;;;;;34.55;17.75;;;;;;;16.40;100.00;101056.25;5001541;28;20046;-69
2021/07/17 06:21:29;;;;;;;33.30;16.77;;;;;;;16.39;100.00;101049.13;5010639;28;20100;-70
2021/07/17 06:23:57;;;;;;;38.40;18.17;;;;;;;16.44;100.00;101048.81;5015855;28;20105;-71
2021/07/17 06:26:23;;;;;;;36.60;16.92;;;;;;;16.49;100.00;101043.06;5015194;28;20435;-71
2021/07/17 06:28:50;;;;;;;41.50;17.65;;;;;;;16.40;100.00;101029.31;5013259;28;20054;-71
2021/07/17 06:31:19;;;;;;;38.55;16.25;;;;;;;16.48;100.00;101041.34;5016164;28;20104;-78
2021/07/17 06:33:47;;;;;;;35.53;16.60;;;;;;;16.41;100.00;101041.78;5022618;28;20060;-80
2021/07/17 06:36:14;;;;;;;37.17;16.85;;;;;;;16.56;100.00;101056.00;5027411;28;20056;-77
2021/07/17 06:38:43;;;;;;;34.55;15.70;;;;;;;16.60;100.00;101056.66;5019193;28;20046;-83
2021/07/17 06:41:14;;;;;;;37.13;16.77;;;;;;;16.54;100.00;101030.13;5006273;28;20057;-70
2021/07/17 06:43:40;;;;;;;32.60;16.02;;;;;;;16.62;100.00;101049.31;5001787;28;20189;-70
2021/07/17 06:46:07;;;;;;;30.65;14.38;;;;;;;16.56;100.00;101047.03;5003818;28;20050;-77
2021/07/17 06:48:34;;;;;;;33.67;14.88;;;;;;;16.66;100.00;101064.28;5004601;28;20053;-72
2021/07/17 06:51:01;;;;;;;29.50;14.63;;;;;;;16.64;100.00;101062.66;5003680;28;20046;-71
2021/07/17 06:53:33;;;;;;;35.63;13.90;;;;;;;16.72;100.00;101064.81;5004499;28;20133;-74
2021/07/17 06:56:00;;;;;;;37.55;14.48;;;;;;;16.76;100.00;101074.38;5004054;28;20043;-71
2021/07/17 06:58:27;;;;;;;31.35;13.40;;;;;;;16.79;100.00;101075.03;5006015;28;20129;-68
2021/07/17 07:00:54;;;;;;;29.60;13.75;;;;;;;16.79;100.00;101079.56;5005707;28;20050;-74
2021/07/17 07:03:21;;;;;;;34.40;13.60;;;;;;;16.73;100.00;101077.31;5007776;28;20049;-71
2021/07/17 07:05:48;;;;;;;25.88;13.18;;;;;;;16.79;100.00;101077.72;5006634;28;20149;-72
2021/07/17 07:08:15;;;;;;;32.33;12.18;;;;;;;16.78;100.00;101081.41;4997405;28;20046;-70
2021/07/17 07:10:42;;;;;;;31.40;12.05;;;;;;;16.67;100.00;101084.88;5001432;28;20054;-70
2021/07/17 07:13:13;;;;;;;28.83;12.18;;;;;;;16.67;100.00;101078.63;5000831;28;20438;-69
2021/07/17 07:15:40;;;;;;;24.15;12.13;;;;;;;16.67;100.00;101079.47;5011985;28;20104;-69
2021/07/17 07:18:08;;;;;;;27.75;12.35;;;;;;;16.73;100.00;101082.72;5007352;28;20057;-71
2021/07/17 07:20:35;;;;;;;35.10;12.85;;;;;;;16.75;100.00;101078.94;5004411;28;20590;-74
2021/07/17 07:23:02;;;;;;;29.63;12.32;;;;;;;16.89;100.00;101088.69;5010090;28;20055;-73
2021/07/17 07:25:30;;;;;;;31.45;11.73;;;;;;;17.06;100.00;101087.50;5002866;28;20055;-76
2021/07/17 07:27:57;;;;;;;33.08;12.20;;;;;;;17.04;100.00;101089.44;5003861;28;20050;-74
2021/07/17 07:30:24;;;;;;;25.55;11.10;;;;;;;17.03;100.00;101086.84;5018515;28;20057;-75
2021/07/17 07:32:52;;;;;;;31.42;11.75;;;;;;;16.99;100.00;101079.94;5000929;28;20096;-74
2021/07/17 07:35:21;;;;;;;30.42;10.95;;;;;;;17.09;100.00;101086.41;5005064;28;20120;-73
2021/07/17 07:37:47;;;;;;;38.42;12.70;;;;;;;17.19;100.00;101086.59;5007150;28;20325;-74
2021/07/17 07:40:15;;;;;;;27.17;10.43;;;;;;;17.24;100.00;101092.50;5004150;28;20438;-74
2021/07/17 07:42:42;;;;;;;24.73;10.80;;;;;;;17.26;100.00;101095.09;5002057;28;20057;-71
2021/07/17 07:45:09;;;;;;;33.03;10.15;;;;;;;17.30;99.89;101101.97;5005329;28;20065;-77
2021/07/17 07:47:36;;;;;;;23.98;11.32;;;;;;;17.34;98.22;101092.69;5007346;28;20123;-81
2021/07/17 07:50:05;;;;;;;26.70;11.10;;;;;;;17.33;98.49;101099.91;5005220;28;20045;-73
2021/07/17 07:52:32;;;;;;;24.05;10.68;;;;;;;17.28;98.33;101098.53;5005828;28;20122;-69
2021/07/17 07:54:59;;;;;;;25.58;10.55;;;;;;;17.26;100.00;101095.09;5003523;28;20379;-69
2021/07/17 07:57:25;;;;;;;28.55;10.90;;;;;;;17.27;100.00;101094.13;5004108;28;20093;-69
2021/07/17 07:59:52;;;;;;;22.50;10.77;;;;;;;17.35;98.66;101097.97;5005603;28;20046;-70
2021/07/17 08:02:19;;;;;;;24.70;10.85;;;;;;;17.43;99.04;101097.38;5004604;28;20042;-70
2021/07/17 08:04:45;;;;;;;27.83;10.80;;;;;;;17.44;99.37;101093.69;5003858;28;20407;-70
2021/07/17 08:07:12;;;;;;;27.05;10.15;;;;;;;17.41;100.00;101085.84;5005571;28;20499;-73
2021/07/17 08:09:39;;;;;;;22.95;9.73;;;;;;;17.43;99.41;101097.38;5004429;28;20085;-70
2021/07/17 08:12:06;;;;;;;30.67;10.38;;;;;;;17.43;97.86;101091.97;5000843;28;20432;-70
2021/07/17 08:14:32;;;;;;;28.65;10.27;;;;;;;17.36;99.91;101090.72;5004830;28;20450;-69
2021/07/17 08:17:02;;;;;;;23.27;9.90;;;;;;;17.43;96.17;101096.53;5004473;28;20046;-70
2021/07/17 08:19:29;;;;;;;25.95;9.85;;;;;;;17.55;97.55;101097.44;5006755;28;20332;-69
2021/07/17 08:21:56;;;;;;;30.95;10.23;;;;;;;17.58;95.53;101103.47;5006987;28;20041;-73
2021/07/17 08:24:23;;;;;;;23.17;9.10;;;;;;;17.68;95.55;101110.84;4991178;28;20133;-70
2021/07/17 08:26:50;;;;;;;25.23;9.63;;;;;;;17.64;92.38;101104.81;5005666;28;20058;-71
2021/07/17 08:29:17;;;;;;;26.92;9.18;;;;;;;17.63;93.41;101105.81;5005011;28;20092;-75
2021/07/17 08:31:44;;;;;;;23.55;9.48;;;;;;;17.61;93.45;101111.31;4988700;28;20057;-75
2021/07/17 08:34:11;;;;;;;26.38;9.88;;;;;;;17.63;93.43;101103.09;5018312;28;20427;-76
2021/07/17 08:36:37;;;;;;;22.13;9.65;;;;;;;17.75;94.80;101112.09;5013772;28;20053;-74
2021/07/17 08:39:04;;;;;;;22.58;9.85;;;;;;;17.77;94.08;101104.75;5007486;28;20046;-76
2021/07/17 08:41:34;;;;;;;25.55;10.40;;;;;;;17.88;93.91;101115.59;5010730;28;20058;-75
2021/07/17 08:44:02;;;;;;;20.40;10.10;;;;;;;17.94;93.81;101113.41;5006568;28;20048;-75
2021/07/17 08:46:29;;;;;;;25.95;11.10;;;;;;;18.05;91.96;101119.72;5007565;28;20096;-76
2021/07/17 08:48:56;;;;;;;25.88;10.85;;;;;;;18.12;92.15;101124.63;5006758;28;20046;-75
2021/07/17 08:51:23;;;;;;;28.95;11.27;;;;;;;18.09;93.03;101122.19;5006202;28;20053;-70
2021/07/17 08:53:51;;;;;;;27.98;12.23;;;;;;;18.08;91.68;101129.41;5006953;28;20085;-80
2021/07/17 08:56:18;;;;;;;19.45;10.32;;;;;;;18.05;93.30;101125.13;5000553;28;20049;-78
2021/07/17 08:58:44;;;;;;;31.10;11.77;;;;;;;18.05;94.72;101125.13;5002564;28;20046;-73
2021/07/17 09:01:15;;;;;;;26.42;12.10;;;;;;;18.16;92.70;101131.53;4998093;28;20121;-71
2021/07/17 09:03:42;;;;;;;25.10;11.85;;;;;;;18.16;92.05;101136.94;4997969;28;20456;-76
2021/07/17 09:06:09;;;;;;;33.08;12.02;;;;;;;18.25;94.18;101129.97;5005491;28;20050;-75
2021/07/17 09:08:36;;;;;;;26.67;11.15;;;;;;;18.22;91.54;101136.47;4999625;28;20109;-78
2021/07/17 09:11:03;;;;;;;27.15;11.93;;;;;;;18.21;93.55;101128.47;4998511;28;20100;-72
2021/07/17 09:13:31;;;;;;;33.08;11.90;;;;;;;18.22;93.42;101108.56;4997483;28;20105;-75
2021/07/17 09:16:07;;;;;;;30.92;12.30;;;;;;;18.20;93.39;101116.81;5000992;28;20045;-73
2021/07/17 09:18:47;;;;;;;28.77;10.85;;;;;;;18.30;92.00;101119.66;5000860;28;20503;-73
2021/07/17 09:21:34;;;;;;;29.05;11.45;;;;;;;18.31;92.40;101114.13;5002116;28;20080;-74
2021/07/17 09:24:03;;;;;;;27.13;11.93;;;;;;;18.29;92.32;101110.69;4998639;28;20061;-74
2021/07/17 09:26:32;;;;;;;28.48;11.65;;;;;;;18.46;89.79;101106.63;4996066;28;20077;-72
2021/07/17 09:29:10;;;;;;;29.20;11.95;;;;;;;18.59;88.90;101095.69;4997393;28;20050;-79
2021/07/17 09:31:52;;;;;;;25.00;12.40;;;;;;;18.99;90.35;101106.97;4997186;28;20053;-71
2021/07/17 09:34:22;;;;;;;24.35;11.65;;;;;;;19.31;89.38;101108.03;4997608;28;20061;-72
2021/07/17 09:36:58;;;;;;;28.75;11.85;;;;;;;19.17;88.86;101112.75;4996235;28;20050;-71
2021/07/17 09:39:31;;;;;;;28.70;11.57;;;;;;;18.99;90.94;101118.66;4995748;28;20109;-72
2021/07/17 09:42:12;;;;;;;27.27;10.38;;;;;;;18.89;90.09;101108.72;4996319;28;20054;-72
2021/07/17 09:44:39;;;;;;;;;;;;;;;18.80;92.77;101118.44;4995947;28;20050;-71
2021/07/17 09:47:20;;;;;;;25.13;11.32;;;;;;;18.78;90.90;101109.59;4996755;28;19921;-71
2021/07/17 09:49:47;;;;;;;26.95;11.48;;;;;;;18.61;86.99;101100.97;4996526;28;20109;-69
2021/07/17 09:52:22;;;;;;;25.35;11.32;;;;;;;18.76;89.26;101103.44;4996453;28;20054;-68
2021/07/17 09:55:12;;;;;;;20.65;10.10;;;;;;;18.81;90.98;101099.38;4997240;28;20109;-69
2021/07/17 09:57:39;;;;;;;;;;;;;;;18.95;90.72;101102.81;4997520;28;20050;-69
2021/07/17 10:00:08;;;;;;;28.00;10.90;;;;;;;18.98;91.59;101103.41;4996993;28;19921;-73
2021/07/17 10:02:51;;;;;;;27.27;11.35;;;;;;;19.07;85.94;101093.69;4996981;28;20082;-71
2021/07/17 10:05:19;;;;;;;33.10;11.88;;;;;;;19.14;87.72;101097.63;4997108;28;20053;-70
2021/07/17 10:07:46;;;;;;;23.70;9.68;;;;;;;19.48;87.03;101095.78;4995902;28;20113;-70
2021/07/17 10:10:13;;;;;;;28.58;10.65;;;;;;;19.61;85.78;101073.97;4996646;28;20532;-71
2021/07/17 10:12:42;;;;;;;22.75;10.32;;;;;;;19.70;85.09;101092.13;4995752;28;20766;-70
2021/07/17 10:15:14;;;;;;;26.40;10.15;;;;;;;19.68;86.44;101094.97;4996498;28;20054;-69
2021/07/17 10:17:43;;;;;;;25.63;9.18;;;;;;;19.71;86.54;101093.84;4996992;28;20066;-72
2021/07/17 10:20:11;;;;;;;21.35;9.27;;;;;;;19.48;85.81;101096.66;4999499;28;20169;-70
2021/07/17 10:22:39;;;;;;;23.10;9.52;;;;;;;19.48;87.98;101095.78;5015960;28;20053;-70
2021/07/17 10:25:11;;;;;;;21.50;9.90;;;;;;;19.65;85.11;101092.53;5015968;28;20506;-71
2021/07/17 10:27:38;;;;;;;20.73;9.10;;;;;;;19.74;88.00;101098.13;5016102;28;20062;-71
2021/07/17 10:30:07;;;;;;;26.05;9.90;;;;;;;19.96;84.30;101083.66;5015879;28;20352;-70
2021/07/17 10:32:49;;;;;;;26.77;9.05;;;;;;;20.07;85.74;101094.44;5015810;28;20054;-69
2021/07/17 10:35:16;;;;;;;18.75;8.13;;;;;;;20.32;81.63;101084.13;5014918;28;20054;-70
2021/07/17 10:37:48;;;;;;;22.10;8.30;;;;;;;20.47;81.10;101092.78;5014739;28;20054;-71
2021/07/17 10:40:17;;;;;;;18.83;7.75;;;;;;;20.59;83.30;101087.25;5016054;28;20108;-71
2021/07/17 10:42:53;;;;;;;16.45;7.70;;;;;;;20.85;76.83;101079.50;5014943;28;20061;-71
2021/07/17 10:45:38;;;;;;;20.80;7.73;;;;;;;20.95;78.97;101084.09;5015665;28;20068;-76
2021/07/17 10:48:29;;;;;;;21.33;8.68;;;;;;;20.98;80.40;101076.53;5015628;28;20053;-77
2021/07/17 10:50:59;;;;;;;;;;;;;;;21.16;83.07;101073.16;5013166;28;20103;-71
2021/07/17 10:53:48;;;;;;;16.33;7.25;;;;;;;21.18;75.94;101073.84;5002527;28;19933;-69
2021/07/17 10:56:26;;;;;;;21.90;7.18;;;;;;;21.18;76.41;101079.28;5004807;28;20364;-71
2021/07/17 10:58:58;;;;;;;19.30;7.30;;;;;;;21.27;76.57;101078.47;5004253;28;20050;-73
2021/07/17 11:01:26;;;;;;;23.05;7.85;;;;;;;21.46;80.60;101078.59;5001982;28;20050;-73
2021/07/17 11:03:53;;;;;;;16.98;7.45;;;;;;;21.53;78.33;101083.28;5003819;28;20343;-74
2021/07/17 11:06:33;;;;;;;16.83;6.75;;;;;;;21.41;77.71;101076.31;5003885;28;20058;-73
2021/07/17 11:09:27;;;;;;;19.80;6.85;;;;;;;21.52;77.78;101076.16;5001652;28;20428;-71
2021/07/17 11:12:18;;;;;;;21.95;6.18;;;;;;;21.62;78.33;101075.31;5004390;28;20054;-72